createdAt,value
2023-05-20T00:07:40.204Z,1108.06628
2023-05-20T00:22:42.366Z,1005.68636
2023-05-20T00:37:44.411Z,843.76913
2023-05-20T00:52:46.501Z,809.96043
2023-05-20T01:07:48.654Z,842.2624
2023-05-20T01:22:50.770Z,816.50367
2023-05-20T01:37:52.844Z,807.6489
2023-05-20T01:52:54.976Z,878.88249
2023-05-20T02:07:57.052Z,793.16193
2023-05-20T02:22:59.101Z,694.29638
2023-05-20T02:38:01.219Z,694.29638
2023-05-20T02:53:03.327Z,663.6561
2023-05-20T03:08:05.439Z,630.50292
2023-05-20T03:23:07.558Z,726.40668
2023-05-20T03:38:09.641Z,811.35371
2023-05-20T03:53:11.662Z,725.66088
2023-05-20T04:08:13.885Z,661.79189
2023-05-20T04:23:15.953Z,636.17801
2023-05-20T04:38:18.087Z,639.05403
2023-05-20T04:53:20.124Z,605.65021
2023-05-20T05:08:22.214Z,623.82504
2023-05-20T05:23:24.291Z,631.62982
2023-05-20T05:38:26.343Z,623.82504
2023-05-20T05:53:28.495Z,647.24703
2023-05-20T06:08:30.556Z,638.47675
2023-05-20T06:23:32.625Z,618.36726
2023-05-20T06:38:34.784Z,624.37613
2023-05-20T06:53:37.442Z,615.13819
2023-05-20T07:08:39.524Z,631.06586
2023-05-20T07:23:41.751Z,630.50292
2023-05-20T07:38:53.226Z,624.37613
2023-05-20T07:54:04.514Z,652.02376
2023-05-20T08:09:06.604Z,643.71016
2023-05-20T08:24:08.767Z,638.47675
2023-05-20T08:39:10.810Z,664.90474
2023-05-20T08:54:12.890Z,697.72331
2023-05-20T09:09:14.896Z,670.58229
2023-05-20T09:24:17.013Z,686.87437
2023-05-20T09:39:19.134Z,694.97907
2023-05-20T09:54:21.277Z,700.48931
2023-05-20T10:09:23.327Z,771.11766
2023-05-20T10:24:25.423Z,707.50121
2023-05-20T10:39:27.521Z,718.28628
2023-05-20T10:54:29.596Z,831.86411
2023-05-20T11:09:31.707Z,839.26503
2023-05-20T11:24:33.779Z,923.02724
2023-05-20T11:39:35.904Z,923.62974
2023-05-20T11:54:37.966Z,891.05843
2023-05-20T12:09:40.087Z,885.48235
2023-05-20T12:24:42.158Z,859.13832
2023-05-20T12:39:44.220Z,833.33383
2023-05-20T12:54:46.290Z,850.36107
2023-05-20T13:09:48.374Z,814.62341
2023-05-20T13:24:50.452Z,837.2786
2023-05-20T13:39:52.506Z,845.28126
2023-05-20T13:54:54.606Z,842.2624
2023-05-20T14:09:56.725Z,867.56641
2023-05-20T14:24:58.815Z,895.00366
2023-05-20T14:40:00.990Z,908.79947
2023-05-20T14:55:03.036Z,924.8371
2023-05-20T15:10:05.091Z,943.33383
2023-05-20T15:25:07.152Z,950.94136
2023-05-20T15:40:09.252Z,977.21044
2023-05-20T15:55:11.285Z,1005.68636
2023-05-20T16:10:13.346Z,965.21196
2023-05-20T16:25:15.558Z,1074.41204
2023-05-20T16:40:17.759Z,1087.62541
2023-05-20T16:55:19.850Z,1035.87166
2023-05-20T17:10:21.904Z,1021.66115
2023-05-20T17:25:23.932Z,1041.97399
2023-05-20T17:40:26.280Z,1038.15164
2023-05-20T17:55:28.472Z,1026.10637
2023-05-20T18:10:30.469Z,1076.86504
2023-05-20T18:25:32.580Z,1000.0005
2023-05-20T18:40:35.017Z,1016.52349
2023-05-20T18:55:37.314Z,1002.12515
2023-05-20T19:10:39.470Z,1044.28094
2023-05-20T19:25:41.566Z,1086.79006
2023-05-20T19:40:43.589Z,1142.05054
2023-05-20T19:55:45.698Z,1174.27436
2023-05-20T20:10:47.735Z,1240.14073
2023-05-20T20:25:49.789Z,1169.42199
2023-05-20T20:40:51.922Z,1107.19925
2023-05-20T20:55:54.089Z,1022.39934
2023-05-20T21:10:56.215Z,1061.51588
2023-05-20T21:25:58.309Z,1068.73162
2023-05-20T21:41:00.413Z,1261.14133
2023-05-20T21:56:02.520Z,1384.54063
2023-05-20T22:11:04.562Z,1445.35291
2023-05-20T22:26:06.666Z,1289.882
2023-05-20T22:41:08.762Z,1256.66125
2023-05-20T22:56:10.973Z,1394.08918
2023-05-20T23:11:13.041Z,1346.33733
2023-05-20T23:26:15.094Z,1279.38568
2023-05-20T23:41:17.203Z,1281.70341
2023-05-20T23:56:19.238Z,1218.77742
